Collinsville, Ohio
Current Conditions -  °F | °C
As of 9:55 AM on Sunday 21 Dec 2014 (Local Time) from KMWO Reporting Station
Haze Haze  
Wind Chill: 29°   Ceiling: Unl
Heat Index: 29°   Visibility: 2.5mi
Dew Point: 26°   Wind: 0mph
Humidity: 86%   Direction: NA
Pressure: 30.35"   Gusts: NA
Location:  39.52°N, 84.61°W
Report Text: KMWO 211455Z AUTO 00000KT 2 1/2SM BR CLR M01/M04 A3035 RMK AO2 T10151036
Loading
Personal Weather Stations






























Interactive Weather Map New forecast layout! Learn more

10-Day Weather Forecast

Advertisements
Track Severe Weather on mobile